Time;durP1;ratioP1;P1;durP2;ratioP2;P2;SDS_P1;SDS_P2;PMS_P1;PMS_P2;Temp;Humidity;BMP_temperature;BMP_pressure;BME280_temperature;BME280_humidity;BME280_pressure;Samples;Min_cycle;Max_cycle;Signal;HPM_P1;HPM_P2
2021/06/22 00:01:55;;;;;;;1.40;0.80;;;25.00;42.50;;;;;;5043078;28;20108;-53
2021/06/22 00:04:21;;;;;;;1.65;0.90;;;25.00;42.50;;;;;;5041567;28;20021;-54
2021/06/22 00:06:46;;;;;;;1.20;0.70;;;25.00;42.40;;;;;;5041654;28;20044;-53
2021/06/22 00:09:12;;;;;;;1.40;0.70;;;25.00;42.40;;;;;;5041452;28;20029;-54
2021/06/22 00:11:38;;;;;;;1.10;0.82;;;25.00;42.50;;;;;;5038226;28;20464;-51
2021/06/22 00:14:04;;;;;;;1.35;0.70;;;25.00;42.50;;;;;;5046419;28;20086;-55
2021/06/22 00:16:32;;;;;;;2.10;1.00;;;25.00;42.40;;;;;;5042638;28;20043;-53
2021/06/22 00:18:58;;;;;;;1.77;0.80;;;24.90;42.40;;;;;;5044354;28;20705;-54
2021/06/22 00:21:24;;;;;;;1.02;0.63;;;24.90;42.40;;;;;;5043314;28;20028;-54
2021/06/22 00:23:49;;;;;;;2.22;0.93;;;24.90;42.50;;;;;;5046165;28;20025;-50
2021/06/22 00:26:15;;;;;;;2.08;0.90;;;24.90;42.50;;;;;;5043294;28;20053;-54
2021/06/22 00:28:41;;;;;;;2.08;0.98;;;24.90;42.50;;;;;;5038375;28;20063;-53
2021/06/22 00:31:07;;;;;;;1.50;0.80;;;24.90;42.50;;;;;;5044082;28;20025;-50
2021/06/22 00:33:33;;;;;;;2.08;0.90;;;24.90;42.60;;;;;;5047065;28;20021;-53
2021/06/22 00:35:59;;;;;;;1.52;0.90;;;24.90;42.60;;;;;;5040582;28;20035;-55
2021/06/22 00:38:25;;;;;;;1.52;0.85;;;24.90;42.60;;;;;;5040632;28;20153;-51
2021/06/22 00:40:51;;;;;;;1.75;1.05;;;24.90;42.60;;;;;;5043290;28;20373;-52
2021/06/22 00:43:17;;;;;;;1.63;0.88;;;24.90;42.60;;;;;;5026350;28;20479;-51
2021/06/22 00:45:44;;;;;;;1.15;0.63;;;24.90;42.60;;;;;;5052978;28;20044;-54
2021/06/22 00:48:10;;;;;;;2.13;1.23;;;24.80;42.60;;;;;;5050623;28;20036;-51
2021/06/22 00:50:36;;;;;;;1.50;0.73;;;24.80;42.60;;;;;;5048602;28;20424;-50
2021/06/22 00:53:07;;;;;;;2.33;0.90;;;24.80;42.60;;;;;;5021783;28;20033;-54
2021/06/22 00:55:33;;;;;;;1.38;0.70;;;24.80;42.60;;;;;;5034867;28;20029;-55
2021/06/22 00:58:07;;;;;;;1.63;0.85;;;24.80;42.60;;;;;;5048118;28;20364;-55
2021/06/22 01:00:38;;;;;;;1.63;1.00;;;24.80;42.60;;;;;;5044170;28;20048;-55
2021/06/22 01:03:05;;;;;;;1.90;1.05;;;24.80;42.60;;;;;;5045993;28;20280;-53
2021/06/22 01:05:41;;;;;;;1.67;0.70;;;24.80;42.60;;;;;;5033868;28;20045;-55
2021/06/22 01:08:07;;;;;;;1.25;0.65;;;24.80;42.60;;;;;;5047208;28;20051;-51
2021/06/22 01:10:32;;;;;;;1.13;0.80;;;24.80;42.60;;;;;;5050461;28;20317;-52
2021/06/22 01:12:59;;;;;;;2.00;0.90;;;24.80;42.60;;;;;;5052470;28;20068;-51
2021/06/22 01:15:30;;;;;;;1.70;0.95;;;24.80;42.60;;;;;;5048486;28;20037;-54
2021/06/22 01:18:05;;;;;;;1.23;0.60;;;24.80;42.60;;;;;;5028637;28;20123;-53
2021/06/22 01:20:42;;;;;;;1.45;0.80;;;24.80;42.60;;;;;;5037219;28;20128;-53
2021/06/22 01:23:08;;;;;;;1.15;0.75;;;24.80;42.60;;;;;;5052827;28;20115;-54
2021/06/22 01:25:38;;;;;;;1.02;0.68;;;24.70;42.50;;;;;;5052777;28;20040;-51
2021/06/22 01:28:04;;;;;;;0.98;0.60;;;24.70;42.60;;;;;;5051709;28;20421;-51
2021/06/22 01:30:33;;;;;;;1.90;1.02;;;24.70;42.50;;;;;;5052464;28;20025;-51
2021/06/22 01:33:05;;;;;;;2.30;1.00;;;24.70;42.60;;;;;;5038232;28;20032;-57
2021/06/22 01:35:31;;;;;;;0.80;0.70;;;24.70;42.60;;;;;;5033980;28;20036;-54
2021/06/22 01:38:06;;;;;;;1.67;0.80;;;24.70;42.50;;;;;;5044608;28;20071;-53
2021/06/22 01:40:48;;;;;;;1.10;0.70;;;24.70;42.50;;;;;;5032523;28;20029;-53
2021/06/22 01:43:16;;;;;;;1.02;0.80;;;24.70;42.50;;;;;;5035285;28;20033;-56
2021/06/22 01:45:46;;;;;;;1.02;0.70;;;24.70;42.60;;;;;;5032359;28;20136;-55
2021/06/22 01:48:13;;;;;;;1.50;0.80;;;24.70;42.60;;;;;;5036233;28;20425;-48
2021/06/22 01:50:46;;;;;;;1.98;1.10;;;24.70;42.60;;;;;;5038636;28;20029;-54
2021/06/22 01:53:18;;;;;;;0.80;0.80;;;24.70;42.60;;;;;;5038747;28;20041;-53
2021/06/22 01:55:50;;;;;;;1.15;0.70;;;24.70;42.60;;;;;;5033296;28;20034;-49
2021/06/22 01:58:17;;;;;;;1.58;0.70;;;24.70;42.60;;;;;;5043568;28;20099;-50
2021/06/22 02:00:59;;;;;;;1.80;0.90;;;24.70;42.70;;;;;;5053658;28;20032;-56
2021/06/22 02:03:37;;;;;;;2.55;0.80;;;24.70;42.70;;;;;;5051698;28;20470;-52
2021/06/22 02:06:03;;;;;;;1.40;0.70;;;24.60;42.60;;;;;;5055145;28;20131;-51
2021/06/22 02:08:32;;;;;;;0.80;0.77;;;24.60;42.60;;;;;;5042109;28;20544;-54
2021/06/22 02:10:58;;;;;;;1.40;0.90;;;24.60;42.60;;;;;;5036008;28;20029;-54
2021/06/22 02:13:45;;;;;;;1.65;1.00;;;24.60;42.60;;;;;;5052824;28;20055;-56
2021/06/22 02:16:18;;;;;;;1.23;0.75;;;24.60;42.60;;;;;;5055669;28;20033;-52
2021/06/22 02:18:46;;;;;;;1.55;0.80;;;24.60;42.60;;;;;;5036058;28;20032;-52
2021/06/22 02:21:13;;;;;;;1.77;1.17;;;24.60;42.60;;;;;;5045684;28;20087;-54
2021/06/22 02:23:40;;;;;;;1.20;0.70;;;24.60;42.60;;;;;;5050504;28;20025;-56
2021/06/22 02:26:07;;;;;;;1.10;0.80;;;24.60;42.60;;;;;;5055340;28;20349;-53
2021/06/22 02:28:33;;;;;;;1.65;0.80;;;24.60;42.60;;;;;;5055081;28;20031;-51
2021/06/22 02:31:04;;;;;;;1.10;0.70;;;24.60;42.60;;;;;;5049667;28;20029;-53
2021/06/22 02:33:31;;;;;;;1.25;0.70;;;24.60;42.60;;;;;;5036654;28;20029;-52
2021/06/22 02:35:58;;;;;;;1.85;0.80;;;24.60;42.60;;;;;;5036225;28;20336;-51
2021/06/22 02:38:36;;;;;;;1.23;0.85;;;24.60;42.60;;;;;;5037792;28;20103;-52
2021/06/22 02:41:02;;;;;;;1.38;0.80;;;24.60;42.60;;;;;;5040277;28;20404;-52
2021/06/22 02:43:33;;;;;;;1.50;0.70;;;24.60;42.60;;;;;;5036704;28;20064;-52
2021/06/22 02:45:59;;;;;;;1.73;0.75;;;24.50;42.50;;;;;;5042771;28;20097;-51
2021/06/22 02:48:26;;;;;;;1.08;0.75;;;24.50;42.50;;;;;;5055370;28;20118;-53
2021/06/22 02:50:54;;;;;;;1.20;0.77;;;24.50;42.60;;;;;;5051574;28;20525;-54
2021/06/22 02:53:24;;;;;;;1.42;0.98;;;24.50;42.50;;;;;;5040743;28;20104;-51
2021/06/22 02:55:54;;;;;;;1.10;0.75;;;24.50;42.50;;;;;;5052716;28;20364;-51
2021/06/22 02:58:20;;;;;;;1.23;0.75;;;24.50;42.50;;;;;;5051172;28;20040;-51
2021/06/22 03:00:52;;;;;;;1.58;0.60;;;24.50;42.50;;;;;;5041892;28;20017;-56
2021/06/22 03:03:18;;;;;;;0.90;0.90;;;24.50;42.50;;;;;;5054212;28;20517;-53
2021/06/22 03:05:54;;;;;;;1.60;0.85;;;24.50;43.10;;;;;;5053630;28;20041;-54
2021/06/22 03:08:29;;;;;;;1.30;0.80;;;24.50;42.50;;;;;;5053396;28;20048;-55
2021/06/22 03:10:54;;;;;;;0.90;0.70;;;24.40;42.50;;;;;;5036227;28;20033;-53
2021/06/22 03:13:21;;;;;;;1.42;0.85;;;24.50;42.50;;;;;;5051188;28;20033;-54
2021/06/22 03:15:49;;;;;;;1.80;0.70;;;24.40;42.50;;;;;;5054000;28;20099;-52
2021/06/22 03:18:15;;;;;;;1.33;0.82;;;24.40;42.50;;;;;;5054066;28;20040;-50
2021/06/22 03:20:47;;;;;;;1.25;0.80;;;24.40;42.50;;;;;;5054757;28;20029;-49
2021/06/22 03:23:16;;;;;;;1.85;0.80;;;24.40;42.50;;;;;;5054050;28;20043;-54
2021/06/22 03:25:42;;;;;;;1.05;0.75;;;24.40;42.50;;;;;;5036969;28;20045;-54
2021/06/22 03:28:08;;;;;;;0.73;0.60;;;24.40;42.50;;;;;;5051857;28;20025;-51
2021/06/22 03:30:48;;;;;;;1.10;0.70;;;24.40;42.50;;;;;;5039944;28;20033;-49
2021/06/22 03:33:14;;;;;;;2.33;1.00;;;24.40;42.50;;;;;;5042242;28;20039;-56
2021/06/22 03:35:40;;;;;;;1.77;0.80;;;24.40;42.50;;;;;;5043160;28;20038;-52
2021/06/22 03:38:06;;;;;;;1.33;0.80;;;24.40;42.50;;;;;;5051496;28;20423;-53
2021/06/22 03:40:32;;;;;;;1.58;0.75;;;24.40;42.50;;;;;;5041998;28;20329;-53
2021/06/22 03:42:58;;;;;;;1.48;0.75;;;24.40;42.50;;;;;;5038948;28;20036;-54
2021/06/22 03:45:24;;;;;;;0.85;0.73;;;24.40;42.50;;;;;;5049891;28;20460;-54
2021/06/22 03:47:52;;;;;;;1.85;0.90;;;24.40;42.50;;;;;;5054834;28;20037;-55
2021/06/22 03:50:18;;;;;;;1.20;0.73;;;24.40;42.50;;;;;;5054448;28;20036;-53
2021/06/22 03:52:44;;;;;;;0.90;0.70;;;24.40;42.50;;;;;;5052528;28;20446;-53
2021/06/22 03:55:26;;;;;;;0.90;0.52;;;24.40;42.50;;;;;;5032493;28;20039;-54
2021/06/22 03:58:12;;;;;;;1.02;0.80;;;24.40;42.50;;;;;;5021210;28;20044;-54
2021/06/22 04:00:50;;;;;;;0.93;0.82;;;24.30;42.50;;;;;;5043162;28;20044;-54
2021/06/22 04:03:20;;;;;;;0.88;0.70;;;24.30;42.50;;;;;;5052561;28;20392;-51
2021/06/22 04:06:06;;;;;;;1.58;0.70;;;24.40;42.50;;;;;;5054320;28;20404;-52
2021/06/22 04:08:31;;;;;;;0.55;0.50;;;24.30;42.50;;;;;;5052995;28;20132;-55
2021/06/22 04:11:05;;;;;;;1.30;0.80;;;24.30;42.50;;;;;;5048489;28;20033;-54
2021/06/22 04:13:33;;;;;;;1.25;0.80;;;24.30;42.50;;;;;;5034286;28;20036;-54
2021/06/22 04:15:59;;;;;;;1.80;0.80;;;24.30;42.50;;;;;;5034647;28;20029;-50
2021/06/22 04:18:27;;;;;;;1.10;0.70;;;24.30;42.50;;;;;;5052156;28;20463;-55
2021/06/22 04:20:55;;;;;;;1.08;0.63;;;24.40;42.50;;;;;;5050935;28;20033;-48
2021/06/22 04:23:24;;;;;;;1.08;0.80;;;24.40;42.50;;;;;;5053828;28;20036;-48
2021/06/22 04:25:51;;;;;;;0.77;0.68;;;24.30;42.40;;;;;;5052435;28;20041;-52
2021/06/22 04:28:19;;;;;;;0.93;0.60;;;24.30;42.50;;;;;;5047043;28;20445;-52
2021/06/22 04:30:45;;;;;;;1.20;0.80;;;24.30;42.50;;;;;;5042339;28;20074;-52
2021/06/22 04:33:11;;;;;;;1.45;0.65;;;24.30;42.50;;;;;;5053523;28;20090;-50
2021/06/22 04:35:37;;;;;;;2.00;0.93;;;24.30;42.50;;;;;;5042248;28;20029;-53
2021/06/22 04:38:04;;;;;;;1.17;0.70;;;24.30;42.40;;;;;;5045367;28;20048;-51
2021/06/22 04:40:31;;;;;;;1.52;0.98;;;24.30;42.40;;;;;;5040290;28;20527;-52
2021/06/22 04:42:57;;;;;;;0.70;0.60;;;24.30;42.50;;;;;;5046001;28;20037;-52
2021/06/22 04:45:23;;;;;;;1.23;0.80;;;24.30;42.40;;;;;;5036013;28;20065;-51
2021/06/22 04:47:49;;;;;;;0.88;0.75;;;24.30;42.40;;;;;;5048478;28;20075;-50
2021/06/22 04:50:15;;;;;;;1.98;1.10;;;24.30;42.40;;;;;;5034112;28;20124;-53
2021/06/22 04:52:41;;;;;;;2.25;1.23;;;24.30;42.40;;;;;;5013504;28;20362;-57
2021/06/22 04:55:12;;;;;;;1.38;0.95;;;24.30;42.40;;;;;;5043111;28;20032;-53
2021/06/22 04:57:43;;;;;;;1.83;1.23;;;24.30;42.40;;;;;;5048125;28;20063;-48
2021/06/22 05:00:10;;;;;;;1.48;1.10;;;24.30;42.50;;;;;;5041945;28;20021;-51
2021/06/22 05:02:36;;;;;;;0.88;0.70;;;24.30;42.50;;;;;;5035302;28;20033;-52
2021/06/22 05:05:03;;;;;;;1.65;0.93;;;24.30;42.50;;;;;;5034571;28;20033;-52
2021/06/22 05:07:29;;;;;;;1.67;0.93;;;24.30;42.50;;;;;;5039324;28;20418;-54
2021/06/22 05:09:56;;;;;;;1.48;0.80;;;24.30;42.50;;;;;;5052845;28;20044;-55
2021/06/22 05:12:22;;;;;;;1.25;1.02;;;24.30;42.40;;;;;;5042405;28;20445;-52
2021/06/22 05:14:48;;;;;;;2.85;1.30;;;24.30;42.40;;;;;;5054163;28;20104;-57
2021/06/22 05:17:14;;;;;;;1.83;1.17;;;24.30;42.50;;;;;;5050041;28;20108;-55
2021/06/22 05:19:40;;;;;;;2.95;1.38;;;24.30;42.40;;;;;;5036205;28;20142;-51
2021/06/22 05:22:05;;;;;;;1.00;0.90;;;24.30;42.40;;;;;;5038287;28;20348;-55
2021/06/22 05:24:31;;;;;;;1.00;0.90;;;24.30;42.40;;;;;;5054105;28;20094;-53
2021/06/22 05:26:57;;;;;;;2.40;1.52;;;24.30;42.40;;;;;;5050410;28;20200;-55
2021/06/22 05:29:23;;;;;;;2.80;1.10;;;24.30;42.40;;;;;;5035773;28;20114;-57
2021/06/22 05:31:48;;;;;;;1.30;1.00;;;24.30;42.40;;;;;;5036574;28;20411;-53
2021/06/22 05:34:14;;;;;;;2.45;1.45;;;24.30;42.40;;;;;;5033052;28;20429;-55
2021/06/22 05:36:40;;;;;;;1.27;1.10;;;24.30;42.40;;;;;;5046915;28;20061;-56
2021/06/22 05:39:06;;;;;;;1.67;1.30;;;24.30;42.30;;;;;;5045560;28;20064;-55
2021/06/22 05:41:31;;;;;;;2.28;1.30;;;24.30;42.30;;;;;;5057223;28;20436;-56
2021/06/22 05:43:57;;;;;;;1.80;1.33;;;24.30;42.30;;;;;;5041371;28;20049;-56
2021/06/22 05:46:24;;;;;;;1.60;1.30;;;24.30;42.30;;;;;;5038841;28;20053;-55
2021/06/22 05:48:49;;;;;;;1.85;1.50;;;24.30;42.30;;;;;;5037210;28;20457;-55
2021/06/22 05:51:16;;;;;;;1.98;1.30;;;24.30;42.30;;;;;;5055468;28;20037;-54
2021/06/22 05:53:42;;;;;;;1.30;1.10;;;24.40;42.30;;;;;;5056296;28;20078;-56
2021/06/22 05:56:08;;;;;;;2.20;1.45;;;24.40;42.20;;;;;;5057230;28;20037;-54
2021/06/22 05:58:33;;;;;;;1.50;1.10;;;24.40;42.20;;;;;;5054341;28;20025;-52
2021/06/22 06:00:59;;;;;;;2.60;1.48;;;24.40;42.20;;;;;;5048926;28;20089;-51
2021/06/22 06:03:25;;;;;;;2.38;1.20;;;24.30;42.20;;;;;;5039609;28;20348;-54
2021/06/22 06:05:51;;;;;;;1.65;1.40;;;24.40;42.10;;;;;;5041179;28;20107;-53
2021/06/22 06:08:16;;;;;;;1.75;1.27;;;24.40;42.10;;;;;;5037772;28;20081;-55
2021/06/22 06:10:42;;;;;;;1.88;1.30;;;24.40;42.10;;;;;;5045316;28;20028;-51
2021/06/22 06:13:08;;;;;;;1.95;1.40;;;24.40;42.00;;;;;;5053695;28;20096;-51
2021/06/22 06:15:34;;;;;;;2.15;1.50;;;24.40;42.00;;;;;;5040266;28;20030;-54
2021/06/22 06:17:59;;;;;;;1.80;1.33;;;24.40;42.00;;;;;;5039331;28;20041;-53
2021/06/22 06:20:27;;;;;;;3.53;1.50;;;24.40;41.90;;;;;;5053360;28;20037;-54
2021/06/22 06:22:53;;;;;;;1.92;1.40;;;24.40;41.90;;;;;;5057051;28;20094;-54
2021/06/22 06:25:19;;;;;;;1.77;1.40;;;24.40;41.90;;;;;;5053363;28;20029;-50
2021/06/22 06:27:49;;;;;;;2.53;1.60;;;24.50;41.90;;;;;;5044158;28;20021;-55
2021/06/22 06:30:19;;;;;;;2.38;1.40;;;24.50;41.90;;;;;;5052716;28;20056;-54
2021/06/22 06:32:46;;;;;;;2.17;1.67;;;24.60;41.90;;;;;;5047558;28;20039;-54
2021/06/22 06:35:12;;;;;;;2.25;1.65;;;24.60;41.80;;;;;;5037670;28;20445;-51
2021/06/22 06:37:39;;;;;;;1.60;1.42;;;24.70;41.80;;;;;;5046732;28;20029;-50
2021/06/22 06:40:08;;;;;;;1.92;1.52;;;24.70;41.80;;;;;;5046920;28;20029;-57
2021/06/22 06:42:34;;;;;;;1.90;1.30;;;24.80;41.70;;;;;;5043458;28;20036;-51
2021/06/22 06:45:00;;;;;;;2.45;1.67;;;24.80;41.70;;;;;;5038560;28;20093;-56
2021/06/22 06:47:26;;;;;;;2.53;1.85;;;24.80;41.60;;;;;;5049262;28;20044;-55
2021/06/22 06:49:51;;;;;;;2.20;1.50;;;24.90;41.50;;;;;;5046093;28;20365;-56
2021/06/22 06:52:18;;;;;;;1.90;1.50;;;24.90;41.40;;;;;;5045182;28;20365;-56
2021/06/22 06:54:44;;;;;;;1.63;1.42;;;24.90;41.40;;;;;;5047466;28;20025;-57
2021/06/22 06:57:10;;;;;;;2.03;1.50;;;25.00;41.30;;;;;;5041703;28;20418;-53
2021/06/22 06:59:36;;;;;;;2.15;1.67;;;25.00;41.20;;;;;;5036653;28;20021;-54
2021/06/22 07:02:02;;;;;;;2.20;1.60;;;25.00;41.10;;;;;;5042023;28;20124;-57
2021/06/22 07:04:28;;;;;;;2.35;1.80;;;25.00;41.00;;;;;;5042093;28;20357;-57
2021/06/22 07:06:54;;;;;;;2.63;1.90;;;25.10;41.00;;;;;;5046613;28;20055;-56
2021/06/22 07:09:20;;;;;;;2.25;2.03;;;25.10;40.90;;;;;;5055209;28;20029;-51
2021/06/22 07:11:46;;;;;;;2.42;1.90;;;25.10;40.80;;;;;;5056232;28;20353;-50
2021/06/22 07:14:14;;;;;;;2.75;2.22;;;25.10;40.60;;;;;;5044565;28;20123;-49
2021/06/22 07:16:41;;;;;;;2.45;1.98;;;25.10;40.40;;;;;;5040690;28;20147;-56
2021/06/22 07:19:07;;;;;;;2.67;2.20;;;25.10;40.30;;;;;;5045408;28;20033;-55
2021/06/22 07:21:33;;;;;;;3.03;2.05;;;25.20;40.20;;;;;;5039425;28;20348;-52
2021/06/22 07:23:59;;;;;;;2.88;2.22;;;25.20;40.80;;;;;;5047427;28;20037;-57
2021/06/22 07:26:25;;;;;;;2.22;1.90;;;25.20;40.00;;;;;;5043995;28;20123;-55
2021/06/22 07:28:51;;;;;;;3.05;2.20;;;25.30;39.90;;;;;;5046575;28;20429;-57
2021/06/22 07:31:18;;;;;;;2.60;2.20;;;25.20;39.70;;;;;;5040989;28;20120;-58
2021/06/22 07:33:43;;;;;;;3.00;2.40;;;25.30;39.70;;;;;;5039084;28;20029;-52
2021/06/22 07:36:09;;;;;;;2.80;2.45;;;25.30;39.60;;;;;;5041969;28;20021;-53
2021/06/22 07:38:36;;;;;;;2.40;2.13;;;25.30;39.50;;;;;;5048592;28;20037;-56
2021/06/22 07:41:02;;;;;;;3.47;2.58;;;25.30;39.40;;;;;;5045974;28;20033;-57
2021/06/22 07:43:28;;;;;;;2.65;2.30;;;25.30;39.30;;;;;;5042408;28;20535;-46
2021/06/22 07:45:54;;;;;;;2.78;2.50;;;25.30;39.30;;;;;;5050394;28;20111;-51
2021/06/22 07:48:20;;;;;;;2.80;2.38;;;25.30;39.30;;;;;;5055423;28;20032;-51
2021/06/22 07:50:46;;;;;;;3.03;2.40;;;25.30;39.30;;;;;;5051032;28;20033;-53
2021/06/22 07:53:13;;;;;;;3.42;2.70;;;25.40;39.40;;;;;;5034660;28;20036;-52
2021/06/22 07:55:39;;;;;;;2.50;2.30;;;25.40;39.30;;;;;;5042860;28;20037;-51
2021/06/22 07:58:05;;;;;;;3.40;2.47;;;25.40;39.30;;;;;;5030876;28;20037;-51
2021/06/22 08:00:40;;;;;;;3.30;2.80;;;25.40;39.20;;;;;;5023848;28;20048;-54
2021/06/22 08:03:08;;;;;;;3.25;2.70;;;25.40;39.10;;;;;;5042263;28;20060;-54
2021/06/22 08:05:34;;;;;;;2.78;2.40;;;25.40;39.00;;;;;;5021558;28;20036;-55
2021/06/22 08:08:00;;;;;;;2.58;2.38;;;25.50;39.00;;;;;;5025056;28;20068;-51
2021/06/22 08:10:26;;;;;;;3.05;2.53;;;25.40;38.80;;;;;;5035700;28;20033;-53
2021/06/22 08:12:52;;;;;;;3.03;2.47;;;25.50;38.80;;;;;;5031571;28;20342;-52
2021/06/22 08:15:19;;;;;;;2.97;2.63;;;25.50;38.70;;;;;;5024396;28;20025;-56
2021/06/22 08:17:45;;;;;;;4.05;3.00;;;25.50;38.70;;;;;;5024524;28;20480;-54
2021/06/22 08:20:11;;;;;;;3.72;3.08;;;25.50;38.70;;;;;;5027982;28;20105;-52
2021/06/22 08:22:38;;;;;;;3.67;2.72;;;25.50;38.60;;;;;;5042940;28;20026;-56
2021/06/22 08:25:08;;;;;;;3.20;2.90;;;25.50;38.60;;;;;;5023136;28;20041;-57
2021/06/22 08:27:34;;;;;;;2.92;2.53;;;25.60;38.70;;;;;;5026103;28;20358;-55
2021/06/22 08:30:00;;;;;;;3.78;2.70;;;25.60;38.70;;;;;;5021758;28;20037;-53
2021/06/22 08:32:28;;;;;;;3.78;2.53;;;25.60;38.60;;;;;;5020350;28;20029;-55
2021/06/22 08:34:57;;;;;;;3.97;3.08;;;25.60;38.60;;;;;;5019281;28;20437;-56
2021/06/22 08:37:25;;;;;;;3.60;3.00;;;25.60;38.60;;;;;;5017954;28;20034;-56
2021/06/22 08:39:54;;;;;;;3.22;2.67;;;25.70;38.60;;;;;;5026822;28;20025;-57
2021/06/22 08:42:23;;;;;;;3.20;2.90;;;25.70;38.60;;;;;;5017821;28;20022;-58
2021/06/22 08:44:51;;;;;;;2.95;2.65;;;25.70;38.60;;;;;;5036146;28;20034;-58
2021/06/22 08:47:25;;;;;;;3.13;2.83;;;25.70;38.60;;;;;;5016848;28;20056;-53
2021/06/22 08:49:52;;;;;;;3.45;2.75;;;25.70;38.50;;;;;;5022088;28;20470;-52
2021/06/22 08:52:26;;;;;;;3.08;2.78;;;25.80;38.60;;;;;;5024005;28;20098;-56
2021/06/22 08:54:54;;;;;;;3.25;2.95;;;25.80;38.60;;;;;;5031647;28;20098;-55
2021/06/22 08:57:20;;;;;;;3.58;2.70;;;25.80;38.50;;;;;;5040070;28;20098;-52
2021/06/22 08:59:47;;;;;;;4.20;3.10;;;25.80;38.50;;;;;;5041310;28;20127;-51
2021/06/22 09:02:14;;;;;;;3.67;3.10;;;25.80;38.40;;;;;;5041331;28;20032;-51
2021/06/22 09:04:40;;;;;;;3.28;2.97;;;25.80;38.30;;;;;;5042035;28;20014;-50
2021/06/22 09:07:06;;;;;;;3.38;3.00;;;25.80;38.80;;;;;;5041466;28;20080;-48
2021/06/22 09:09:37;;;;;;;2.92;2.60;;;25.80;38.10;;;;;;5040141;28;20029;-53
2021/06/22 09:12:10;;;;;;;3.58;2.67;;;25.80;38.00;;;;;;5039617;28;20352;-52
2021/06/22 09:14:38;;;;;;;4.90;2.83;;;25.90;38.10;;;;;;5032300;28;20030;-57
2021/06/22 09:17:06;;;;;;;2.67;2.40;;;25.80;38.10;;;;;;5036405;28;20449;-51
2021/06/22 09:19:32;;;;;;;2.75;2.47;;;25.80;38.20;;;;;;5035984;28;20030;-54
2021/06/22 09:22:14;;;;;;;3.35;2.67;;;25.80;38.20;;;;;;5035153;28;20025;-56
2021/06/22 09:25:11;;;;;;;2.97;2.65;;;25.90;38.10;;;;;;5043721;28;20112;-52
2021/06/22 09:27:50;;;;;;;3.80;3.05;;;25.90;38.00;;;;;;5037095;28;20049;-52
2021/06/22 09:30:36;;;;;;;2.80;2.38;;;25.90;37.90;;;;;;5036538;28;20037;-50
2021/06/22 09:33:19;;;;;;;2.92;2.60;;;25.90;37.70;;;;;;5034949;28;20033;-54
2021/06/22 09:35:46;;;;;;;3.78;2.72;;;25.90;37.70;;;;;;5037096;28;20028;-51
2021/06/22 09:38:13;;;;;;;3.03;2.63;;;25.80;37.60;;;;;;5043858;28;20047;-51
2021/06/22 09:40:39;;;;;;;4.00;2.92;;;25.80;37.40;;;;;;5039137;28;20034;-53
2021/06/22 09:43:05;;;;;;;3.20;2.88;;;25.80;37.40;;;;;;5041020;28;20480;-54
2021/06/22 09:45:31;;;;;;;4.53;3.40;;;25.80;37.30;;;;;;5039469;28;20353;-54
2021/06/22 09:48:02;;;;;;;4.22;3.65;;;25.80;37.20;;;;;;5039525;28;20033;-57
2021/06/22 09:50:48;;;;;;;8.07;3.50;;;25.80;37.20;;;;;;5034578;28;20516;-53
2021/06/22 09:53:31;;;;;;;5.10;4.18;;;25.80;37.10;;;;;;5038036;28;20033;-56
2021/06/22 09:56:00;;;;;;;5.05;3.88;;;25.80;37.00;;;;;;5036553;28;20052;-55
2021/06/22 09:58:42;;;;;;;3.85;3.42;;;25.80;37.10;;;;;;5032909;28;20456;-51
2021/06/22 10:01:37;;;;;;;5.05;3.88;;;25.80;36.90;;;;;;5039638;28;20745;-52
2021/06/22 10:04:12;;;;;;;5.57;4.97;;;25.80;36.90;;;;;;5036442;28;20030;-52
2021/06/22 10:06:38;;;;;;;4.90;4.40;;;25.80;37.00;;;;;;5033141;28;20100;-54
2021/06/22 10:09:04;;;;;;;5.35;4.32;;;25.80;37.00;;;;;;5020333;28;20041;-54
2021/06/22 10:11:33;;;;;;;4.88;4.05;;;25.80;36.90;;;;;;5026957;28;20045;-54
2021/06/22 10:14:00;;;;;;;5.72;4.55;;;25.80;36.90;;;;;;5028444;28;20033;-57
2021/06/22 10:16:31;;;;;;;4.60;4.05;;;25.80;36.80;;;;;;5021945;28;20072;-53
2021/06/22 10:19:02;;;;;;;4.85;4.18;;;25.80;36.80;;;;;;5018698;28;20425;-54
2021/06/22 10:21:29;;;;;;;4.22;3.80;;;25.80;36.70;;;;;;5021505;28;20087;-49
2021/06/22 10:23:57;;;;;;;4.05;3.65;;;25.80;36.60;;;;;;5016471;28;20029;-50
2021/06/22 10:26:28;;;;;;;3.55;3.22;;;25.80;36.60;;;;;;5032966;28;20044;-48
2021/06/22 10:28:56;;;;;;;4.30;3.63;;;25.80;36.50;;;;;;5020996;28;20095;-53
2021/06/22 10:31:22;;;;;;;5.47;3.58;;;25.80;36.40;;;;;;5030586;28;20449;-47
2021/06/22 10:33:48;;;;;;;3.88;3.08;;;25.80;36.40;;;;;;5028458;28;20018;-51
2021/06/22 10:37:01;;;;;;;3.72;3.22;;;25.80;36.40;;;;;;5022606;28;20029;-48
2021/06/22 10:39:37;;;;;;;3.40;3.00;;;25.80;36.30;;;;;;4987967;28;20026;-51
2021/06/22 10:42:10;;;;;;;4.60;3.13;;;25.80;36.40;;;;;;4978461;28;20042;-52
2021/06/22 10:44:42;;;;;;;3.58;3.08;;;25.80;36.40;;;;;;5000704;28;20402;-52
2021/06/22 10:47:17;;;;;;;3.85;3.15;;;25.80;36.30;;;;;;5031738;28;20048;-48
2021/06/22 10:50:18;;;;;;;3.20;2.90;;;25.80;36.20;;;;;;5027985;28;20033;-53
2021/06/22 10:52:44;;;;;;;4.10;3.00;;;25.80;36.10;;;;;;5026520;28;20046;-50
2021/06/22 10:55:19;;;;;;;3.83;3.03;;;25.80;36.20;;;;;;5044941;28;20059;-46
2021/06/22 10:58:00;;;;;;;3.08;2.80;;;25.80;36.10;;;;;;5026574;28;20443;-52
2021/06/22 11:00:30;;;;;;;3.40;2.92;;;25.90;36.10;;;;;;5021443;28;20346;-45
2021/06/22 11:02:58;;;;;;;4.68;3.22;;;25.80;36.10;;;;;;5021743;28;20030;-48
2021/06/22 11:05:25;;;;;;;3.25;2.95;;;25.80;35.90;;;;;;5023160;28;20026;-47
2021/06/22 11:08:28;;;;;;;3.78;3.10;;;25.80;35.90;;;;;;5028625;28;20046;-49
2021/06/22 11:10:56;;;;;;;4.13;3.30;;;25.80;35.70;;;;;;5031181;28;20091;-48
2021/06/22 11:13:57;;;;;;;3.38;2.97;;;25.80;35.80;;;;;;5017179;28;20030;-50
2021/06/22 11:16:25;;;;;;;4.05;3.22;;;25.80;35.70;;;;;;5015455;28;20052;-48
2021/06/22 11:18:54;;;;;;;3.35;3.05;;;25.80;35.90;;;;;;5019414;28;20045;-52
2021/06/22 11:21:41;;;;;;;4.60;3.45;;;25.90;36.00;;;;;;5032238;28;20040;-63
2021/06/22 11:24:12;;;;;;;5.72;3.05;;;25.90;36.00;;;;;;5021025;28;20088;-52
2021/06/22 11:26:41;;;;;;;3.55;2.72;;;25.90;36.10;;;;;;5029261;28;20041;-53
2021/06/22 11:29:10;;;;;;;5.57;2.65;;;25.90;36.10;;;;;;5023447;28;20040;-54
2021/06/22 11:31:51;;;;;;;3.17;2.65;;;25.90;36.20;;;;;;5029147;28;20108;-52
2021/06/22 11:34:21;;;;;;;3.00;2.72;;;25.90;36.00;;;;;;5024552;28;20317;-50
2021/06/22 11:36:54;;;;;;;3.30;3.00;;;25.90;36.10;;;;;;5021560;28;20034;-51
2021/06/22 11:39:23;;;;;;;4.03;3.15;;;25.90;36.10;;;;;;5032287;28;20433;-46
2021/06/22 11:42:07;;;;;;;3.17;2.88;;;25.90;36.00;;;;;;5023881;28;20433;-47
2021/06/22 11:44:35;;;;;;;3.47;2.78;;;25.90;36.00;;;;;;5028730;28;20057;-48
2021/06/22 11:47:05;;;;;;;5.07;2.80;;;25.90;36.00;;;;;;5022207;28;20104;-53
2021/06/22 11:49:48;;;;;;;3.05;2.80;;;25.90;36.00;;;;;;5020722;28;20026;-51
2021/06/22 11:52:16;;;;;;;3.67;2.83;;;26.00;36.00;;;;;;5024431;28;20025;-48
2021/06/22 11:54:48;;;;;;;3.35;2.90;;;26.00;36.10;;;;;;5025694;28;20041;-52
2021/06/22 11:57:17;;;;;;;4.43;3.60;;;26.00;36.10;;;;;;5023021;28;20065;-48
2021/06/22 11:59:45;;;;;;;5.45;4.03;;;26.00;36.20;;;;;;5022546;28;20030;-49
2021/06/22 12:02:12;;;;;;;4.55;4.10;;;26.00;36.20;;;;;;5019603;28;20037;-52
2021/06/22 12:04:38;;;;;;;5.50;4.68;;;26.00;36.20;;;;;;5026737;28;20057;-52
2021/06/22 12:07:04;;;;;;;5.00;4.50;;;26.00;36.20;;;;;;5022614;28;20132;-50
2021/06/22 12:09:30;;;;;;;4.60;4.20;;;26.10;36.20;;;;;;5015641;28;20101;-48
2021/06/22 12:11:57;;;;;;;4.30;3.90;;;26.10;36.10;;;;;;5022394;28;20092;-49
2021/06/22 12:14:23;;;;;;;4.68;4.10;;;26.10;36.00;;;;;;5020023;28;20377;-48
2021/06/22 12:16:49;;;;;;;4.45;3.80;;;26.10;36.00;;;;;;5022316;28;20030;-48
2021/06/22 12:19:18;;;;;;;4.18;3.55;;;26.10;36.00;;;;;;5028493;28;20084;-50
2021/06/22 12:21:50;;;;;;;3.50;3.10;;;26.10;35.90;;;;;;5020933;28;20026;-50
2021/06/22 12:24:18;;;;;;;4.53;3.78;;;26.20;36.00;;;;;;5031681;28;20029;-49
2021/06/22 12:26:49;;;;;;;3.60;3.30;;;26.20;36.00;;;;;;5023268;28;20052;-48
2021/06/22 12:29:31;;;;;;;3.28;2.97;;;26.10;35.90;;;;;;5021616;28;20018;-51
2021/06/22 12:32:17;;;;;;;3.20;2.90;;;26.20;35.90;;;;;;5026401;28;20484;-50
2021/06/22 12:34:43;;;;;;;4.18;3.10;;;26.20;35.90;;;;;;5024254;28;20025;-49
2021/06/22 12:37:24;;;;;;;3.60;2.97;;;26.20;35.90;;;;;;5030042;28;20322;-53
2021/06/22 12:39:50;;;;;;;3.08;2.70;;;26.20;35.80;;;;;;5025062;28;20084;-57
2021/06/22 12:42:23;;;;;;;3.10;2.80;;;26.20;35.90;;;;;;5025863;28;20042;-48
2021/06/22 12:44:49;;;;;;;2.97;2.78;;;26.20;35.90;;;;;;5027661;28;20022;-55
2021/06/22 12:47:15;;;;;;;3.63;3.28;;;26.20;36.00;;;;;;5018155;28;20347;-48
2021/06/22 12:49:41;;;;;;;5.30;3.67;;;26.20;36.00;;;;;;5021154;28;20030;-51
2021/06/22 12:52:08;;;;;;;3.78;3.40;;;26.20;36.00;;;;;;5027282;28;20044;-55
2021/06/22 12:54:37;;;;;;;4.40;4.00;;;26.30;36.20;;;;;;5017874;28;20026;-50
2021/06/22 12:57:06;;;;;;;4.90;4.30;;;26.20;36.10;;;;;;5023450;28;20068;-49
2021/06/22 12:59:46;;;;;;;4.57;4.18;;;26.30;36.10;;;;;;5026512;28;20025;-51